sensor_id;sensor_type;location;lat;lon;timestamp;pressure;altitude;pressure_sealevel;temperature;humidity
40245;BME280;25963;42.694;23.600;2022-11-15T00:01:31;95814.22;;;2.44;100.00
40245;BME280;25963;42.694;23.600;2022-11-15T00:03:56;95816.88;;;2.53;100.00
40245;BME280;25963;42.694;23.600;2022-11-15T00:06:22;95810.56;;;2.55;100.00
40245;BME280;25963;42.694;23.600;2022-11-15T00:08:47;95809.38;;;2.49;100.00
40245;BME280;25963;42.694;23.600;2022-11-15T00:11:13;95812.28;;;2.46;100.00
40245;BME280;25963;42.694;23.600;2022-11-15T00:13:39;95807.28;;;2.53;100.00
40245;BME280;25963;42.694;23.600;2022-11-15T00:16:04;95804.16;;;2.49;100.00
40245;BME280;25963;42.694;23.600;2022-11-15T00:18:31;95809.56;;;2.56;100.00
40245;BME280;25963;42.694;23.600;2022-11-15T00:21:03;95802.06;;;2.53;100.00
40245;BME280;25963;42.694;23.600;2022-11-15T00:23:29;95811.31;;;2.47;100.00
40245;BME280;25963;42.694;23.600;2022-11-15T00:25:55;95809.97;;;2.43;100.00
40245;BME280;25963;42.694;23.600;2022-11-15T00:28:21;95807.47;;;2.34;100.00
40245;BME280;25963;42.694;23.600;2022-11-15T00:30:47;95814.31;;;2.35;100.00
40245;BME280;25963;42.694;23.600;2022-11-15T00:33:12;95813.41;;;2.44;100.00
40245;BME280;25963;42.694;23.600;2022-11-15T00:35:38;95799.56;;;2.43;100.00
40245;BME280;25963;42.694;23.600;2022-11-15T00:38:03;95799.34;;;2.37;100.00
40245;BME280;25963;42.694;23.600;2022-11-15T00:40:29;95800.59;;;2.33;100.00
40245;BME280;25963;42.694;23.600;2022-11-15T00:42:55;95797.06;;;2.34;100.00
40245;BME280;25963;42.694;23.600;2022-11-15T00:45:20;95788.94;;;2.37;100.00
40245;BME280;25963;42.694;23.600;2022-11-15T00:47:45;95783.88;;;2.35;100.00
40245;BME280;25963;42.694;23.600;2022-11-15T00:50:14;95784.84;;;2.34;100.00
40245;BME280;25963;42.694;23.600;2022-11-15T00:52:39;95785.72;;;2.43;100.00
40245;BME280;25963;42.694;23.600;2022-11-15T00:55:05;95780.06;;;2.29;100.00
40245;BME280;25963;42.694;23.600;2022-11-15T00:57:31;95781.97;;;2.19;100.00
40245;BME280;25963;42.694;23.600;2022-11-15T00:59:56;95780.00;;;2.21;100.00
40245;BME280;25963;42.694;23.600;2022-11-15T01:02:21;95786.25;;;2.28;100.00
40245;BME280;25963;42.694;23.600;2022-11-15T01:04:47;95788.09;;;2.36;100.00
40245;BME280;25963;42.694;23.600;2022-11-15T01:07:13;95790.66;;;2.28;100.00
40245;BME280;25963;42.694;23.600;2022-11-15T01:09:38;95787.25;;;2.10;100.00
40245;BME280;25963;42.694;23.600;2022-11-15T01:12:04;95780.84;;;2.04;100.00
40245;BME280;25963;42.694;23.600;2022-11-15T01:14:29;95792.00;;;2.14;100.00
40245;BME280;25963;42.694;23.600;2022-11-15T01:16:55;95787.97;;;2.20;100.00
40245;BME280;25963;42.694;23.600;2022-11-15T01:19:20;95783.50;;;2.12;100.00
40245;BME280;25963;42.694;23.600;2022-11-15T01:21:49;95785.16;;;2.13;100.00
40245;BME280;25963;42.694;23.600;2022-11-15T01:24:15;95788.72;;;2.12;100.00
40245;BME280;25963;42.694;23.600;2022-11-15T01:26:40;95774.88;;;2.12;100.00
40245;BME280;25963;42.694;23.600;2022-11-15T01:29:06;95774.38;;;2.08;100.00
40245;BME280;25963;42.694;23.600;2022-11-15T01:31:31;95775.69;;;2.12;100.00
40245;BME280;25963;42.694;23.600;2022-11-15T01:33:57;95779.44;;;2.10;100.00
40245;BME280;25963;42.694;23.600;2022-11-15T01:36:22;95775.88;;;2.11;100.00
40245;BME280;25963;42.694;23.600;2022-11-15T01:38:55;95768.50;;;2.06;100.00
40245;BME280;25963;42.694;23.600;2022-11-15T01:41:27;95776.06;;;2.17;100.00
40245;BME280;25963;42.694;23.600;2022-11-15T01:46:41;95770.06;;;2.17;100.00
40245;BME280;25963;42.694;23.600;2022-11-15T01:49:19;95773.38;;;2.27;100.00
40245;BME280;25963;42.694;23.600;2022-11-15T01:51:46;95774.56;;;2.33;100.00
40245;BME280;25963;42.694;23.600;2022-11-15T01:54:16;95781.03;;;2.46;100.00
40245;BME280;25963;42.694;23.600;2022-11-15T01:56:46;95773.22;;;2.46;100.00
40245;BME280;25963;42.694;23.600;2022-11-15T01:59:14;95771.94;;;2.50;100.00
40245;BME280;25963;42.694;23.600;2022-11-15T02:01:40;95772.00;;;2.59;100.00
40245;BME280;25963;42.694;23.600;2022-11-15T02:06:35;95775.41;;;2.59;100.00
40245;BME280;25963;42.694;23.600;2022-11-15T02:09:01;95780.31;;;2.62;100.00
40245;BME280;25963;42.694;23.600;2022-11-15T02:11:26;95773.84;;;2.66;100.00
40245;BME280;25963;42.694;23.600;2022-11-15T02:13:53;95775.41;;;2.59;100.00
40245;BME280;25963;42.694;23.600;2022-11-15T02:32:44;95762.44;;;2.67;100.00
40245;BME280;25963;42.694;23.600;2022-11-15T02:35:16;95760.03;;;2.74;100.00
40245;BME280;25963;42.694;23.600;2022-11-15T02:37:55;95760.22;;;2.81;100.00
40245;BME280;25963;42.694;23.600;2022-11-15T02:43:10;95769.91;;;2.88;100.00
40245;BME280;25963;42.694;23.600;2022-11-15T02:46:06;95760.97;;;2.91;100.00
40245;BME280;25963;42.694;23.600;2022-11-15T02:48:35;95770.59;;;2.98;100.00
40245;BME280;25963;42.694;23.600;2022-11-15T02:51:01;95777.47;;;3.00;100.00
40245;BME280;25963;42.694;23.600;2022-11-15T02:53:27;95771.13;;;3.02;100.00
40245;BME280;25963;42.694;23.600;2022-11-15T02:55:54;95776.19;;;2.78;100.00
40245;BME280;25963;42.694;23.600;2022-11-15T03:01:28;95769.09;;;2.96;100.00
40245;BME280;25963;42.694;23.600;2022-11-15T03:04:19;95767.84;;;3.00;100.00
40245;BME280;25963;42.694;23.600;2022-11-15T03:09:35;95757.72;;;2.97;100.00
40245;BME280;25963;42.694;23.600;2022-11-15T03:12:15;95764.13;;;3.03;100.00
40245;BME280;25963;42.694;23.600;2022-11-15T03:14:50;95776.41;;;2.92;100.00
40245;BME280;25963;42.694;23.600;2022-11-15T03:19:50;95773.34;;;3.23;100.00
40245;BME280;25963;42.694;23.600;2022-11-15T03:22:21;95775.78;;;3.25;100.00
40245;BME280;25963;42.694;23.600;2022-11-15T03:24:52;95762.41;;;3.28;100.00
40245;BME280;25963;42.694;23.600;2022-11-15T03:27:23;95759.34;;;3.40;100.00
40245;BME280;25963;42.694;23.600;2022-11-15T03:29:53;95744.53;;;3.41;100.00
40245;BME280;25963;42.694;23.600;2022-11-15T03:32:25;95746.31;;;3.40;100.00
40245;BME280;25963;42.694;23.600;2022-11-15T03:35:02;95747.63;;;3.36;100.00
40245;BME280;25963;42.694;23.600;2022-11-15T03:37:40;95756.81;;;3.57;100.00
40245;BME280;25963;42.694;23.600;2022-11-15T03:40:08;95754.69;;;3.60;100.00
40245;BME280;25963;42.694;23.600;2022-11-15T03:42:42;95768.72;;;3.59;100.00
40245;BME280;25963;42.694;23.600;2022-11-15T03:45:17;95752.94;;;3.69;100.00
40245;BME280;25963;42.694;23.600;2022-11-15T03:48:18;95760.91;;;3.76;100.00
40245;BME280;25963;42.694;23.600;2022-11-15T03:50:47;95751.09;;;3.61;100.00
40245;BME280;25963;42.694;23.600;2022-11-15T03:53:13;95735.13;;;3.56;100.00
40245;BME280;25963;42.694;23.600;2022-11-15T03:55:39;95740.81;;;3.52;100.00
40245;BME280;25963;42.694;23.600;2022-11-15T03:58:05;95738.84;;;3.46;100.00
40245;BME280;25963;42.694;23.600;2022-11-15T04:00:30;95726.25;;;3.41;100.00
40245;BME280;25963;42.694;23.600;2022-11-15T04:02:56;95742.16;;;3.64;100.00
40245;BME280;25963;42.694;23.600;2022-11-15T04:05:21;95733.50;;;3.63;100.00
40245;BME280;25963;42.694;23.600;2022-11-15T04:07:46;95736.63;;;3.16;100.00
40245;BME280;25963;42.694;23.600;2022-11-15T04:10:12;95729.34;;;3.28;100.00
40245;BME280;25963;42.694;23.600;2022-11-15T04:12:40;95726.47;;;3.48;100.00
40245;BME280;25963;42.694;23.600;2022-11-15T04:15:10;95723.69;;;3.49;100.00
40245;BME280;25963;42.694;23.600;2022-11-15T04:17:39;95721.78;;;3.59;100.00
40245;BME280;25963;42.694;23.600;2022-11-15T04:22:54;95719.16;;;3.76;100.00
40245;BME280;25963;42.694;23.600;2022-11-15T04:25:38;95703.69;;;3.74;100.00
40245;BME280;25963;42.694;23.600;2022-11-15T04:28:03;95699.59;;;3.88;100.00
40245;BME280;25963;42.694;23.600;2022-11-15T04:30:29;95704.00;;;4.12;100.00
40245;BME280;25963;42.694;23.600;2022-11-15T04:32:54;95704.50;;;4.32;100.00
40245;BME280;25963;42.694;23.600;2022-11-15T04:35:19;95703.97;;;4.45;100.00
40245;BME280;25963;42.694;23.600;2022-11-15T04:37:45;95697.28;;;4.58;100.00
40245;BME280;25963;42.694;23.600;2022-11-15T04:40:11;95697.28;;;4.58;100.00
40245;BME280;25963;42.694;23.600;2022-11-15T04:42:36;95701.84;;;4.65;100.00
40245;BME280;25963;42.694;23.600;2022-11-15T04:45:01;95698.91;;;4.60;100.00
40245;BME280;25963;42.694;23.600;2022-11-15T04:47:27;95689.16;;;4.37;100.00
40245;BME280;25963;42.694;23.600;2022-11-15T04:49:53;95703.50;;;4.49;100.00
40245;BME280;25963;42.694;23.600;2022-11-15T04:52:18;95690.13;;;4.36;100.00
40245;BME280;25963;42.694;23.600;2022-11-15T04:54:44;95688.81;;;4.32;100.00
40245;BME280;25963;42.694;23.600;2022-11-15T04:57:09;95685.03;;;4.51;100.00
40245;BME280;25963;42.694;23.600;2022-11-15T04:59:35;95689.09;;;4.53;100.00
40245;BME280;25963;42.694;23.600;2022-11-15T05:02:00;95691.56;;;4.55;100.00
40245;BME280;25963;42.694;23.600;2022-11-15T05:04:26;95694.94;;;4.72;100.00
40245;BME280;25963;42.694;23.600;2022-11-15T05:06:51;95697.19;;;4.83;100.00
40245;BME280;25963;42.694;23.600;2022-11-15T05:09:18;95700.75;;;4.90;100.00
40245;BME280;25963;42.694;23.600;2022-11-15T05:11:44;95694.25;;;4.86;100.00
40245;BME280;25963;42.694;23.600;2022-11-15T05:14:10;95701.72;;;4.97;100.00
40245;BME280;25963;42.694;23.600;2022-11-15T05:16:36;95706.16;;;4.97;100.00
40245;BME280;25963;42.694;23.600;2022-11-15T05:19:02;95699.13;;;4.89;100.00
40245;BME280;25963;42.694;23.600;2022-11-15T05:21:27;95696.72;;;4.88;100.00
40245;BME280;25963;42.694;23.600;2022-11-15T05:23:53;95705.03;;;4.91;100.00
40245;BME280;25963;42.694;23.600;2022-11-15T05:26:18;95696.53;;;4.89;100.00
40245;BME280;25963;42.694;23.600;2022-11-15T05:28:44;95702.41;;;4.91;100.00
40245;BME280;25963;42.694;23.600;2022-11-15T05:31:14;95710.44;;;4.81;100.00
40245;BME280;25963;42.694;23.600;2022-11-15T05:33:41;95702.09;;;4.86;100.00
40245;BME280;25963;42.694;23.600;2022-11-15T05:36:54;95698.34;;;4.89;100.00
40245;BME280;25963;42.694;23.600;2022-11-15T05:38:55;95704.03;;;4.84;100.00
40245;BME280;25963;42.694;23.600;2022-11-15T05:41:28;95707.66;;;4.75;100.00
40245;BME280;25963;42.694;23.600;2022-11-15T05:43:57;95713.91;;;4.66;100.00
40245;BME280;25963;42.694;23.600;2022-11-15T05:46:23;95708.19;;;4.62;100.00
40245;BME280;25963;42.694;23.600;2022-11-15T05:48:50;95710.00;;;4.53;100.00
40245;BME280;25963;42.694;23.600;2022-11-15T05:51:17;95720.00;;;4.33;100.00
40245;BME280;25963;42.694;23.600;2022-11-15T05:53:44;95726.72;;;4.28;100.00
40245;BME280;25963;42.694;23.600;2022-11-15T05:56:10;95724.09;;;4.11;100.00
40245;BME280;25963;42.694;23.600;2022-11-15T05:58:37;95724.75;;;4.14;100.00
40245;BME280;25963;42.694;23.600;2022-11-15T06:01:03;95712.19;;;4.17;100.00
40245;BME280;25963;42.694;23.600;2022-11-15T06:03:29;95717.22;;;4.35;100.00
40245;BME280;25963;42.694;23.600;2022-11-15T06:05:55;95715.91;;;4.39;100.00
40245;BME280;25963;42.694;23.600;2022-11-15T06:08:21;95722.94;;;4.30;100.00
40245;BME280;25963;42.694;23.600;2022-11-15T06:10:46;95715.44;;;4.35;100.00
40245;BME280;25963;42.694;23.600;2022-11-15T06:13:12;95727.34;;;4.38;100.00
40245;BME280;25963;42.694;23.600;2022-11-15T06:15:37;95726.38;;;4.31;100.00
40245;BME280;25963;42.694;23.600;2022-11-15T06:18:02;95728.00;;;4.32;100.00
40245;BME280;25963;42.694;23.600;2022-11-15T06:20:29;95730.28;;;4.27;100.00
40245;BME280;25963;42.694;23.600;2022-11-15T06:23:03;95731.09;;;4.44;100.00
40245;BME280;25963;42.694;23.600;2022-11-15T06:25:30;95736.50;;;4.34;100.00
40245;BME280;25963;42.694;23.600;2022-11-15T06:27:56;95729.63;;;4.33;100.00
40245;BME280;25963;42.694;23.600;2022-11-15T06:30:23;95724.88;;;4.37;100.00
40245;BME280;25963;42.694;23.600;2022-11-15T06:32:48;95728.81;;;4.32;100.00
40245;BME280;25963;42.694;23.600;2022-11-15T06:35:14;95731.44;;;4.41;100.00
40245;BME280;25963;42.694;23.600;2022-11-15T06:37:40;95736.47;;;4.42;100.00
40245;BME280;25963;42.694;23.600;2022-11-15T06:40:06;95724.22;;;4.51;100.00
40245;BME280;25963;42.694;23.600;2022-11-15T06:42:32;95724.03;;;4.69;100.00
40245;BME280;25963;42.694;23.600;2022-11-15T06:44:58;95726.28;;;4.80;100.00
40245;BME280;25963;42.694;23.600;2022-11-15T06:47:23;95726.31;;;4.72;100.00
40245;BME280;25963;42.694;23.600;2022-11-15T06:49:48;95724.16;;;4.75;100.00
40245;BME280;25963;42.694;23.600;2022-11-15T06:52:14;95717.78;;;4.78;100.00
40245;BME280;25963;42.694;23.600;2022-11-15T06:54:39;95720.72;;;4.83;100.00
40245;BME280;25963;42.694;23.600;2022-11-15T06:57:05;95713.53;;;4.85;100.00
40245;BME280;25963;42.694;23.600;2022-11-15T06:59:30;95720.72;;;4.91;100.00
40245;BME280;25963;42.694;23.600;2022-11-15T07:01:56;95715.44;;;4.99;100.00
40245;BME280;25963;42.694;23.600;2022-11-15T07:04:21;95713.13;;;5.04;100.00
40245;BME280;25963;42.694;23.600;2022-11-15T07:06:47;95710.28;;;5.22;100.00
40245;BME280;25963;42.694;23.600;2022-11-15T07:09:13;95706.03;;;5.30;100.00
40245;BME280;25963;42.694;23.600;2022-11-15T07:11:39;95716.41;;;5.38;100.00
40245;BME280;25963;42.694;23.600;2022-11-15T07:14:04;95716.22;;;5.47;100.00
40245;BME280;25963;42.694;23.600;2022-11-15T07:16:30;95712.84;;;5.62;100.00
40245;BME280;25963;42.694;23.600;2022-11-15T07:18:55;95712.84;;;5.62;100.00
40245;BME280;25963;42.694;23.600;2022-11-15T07:21:21;95713.81;;;5.69;100.00
40245;BME280;25963;42.694;23.600;2022-11-15T07:23:46;95712.50;;;5.65;100.00
40245;BME280;25963;42.694;23.600;2022-11-15T07:26:12;95710.97;;;5.79;100.00
40245;BME280;25963;42.694;23.600;2022-11-15T07:28:37;95708.84;;;5.74;100.00
40245;BME280;25963;42.694;23.600;2022-11-15T07:31:04;95709.56;;;5.91;100.00
40245;BME280;25963;42.694;23.600;2022-11-15T07:33:30;95705.13;;;5.91;100.00
40245;BME280;25963;42.694;23.600;2022-11-15T07:35:59;95699.44;;;5.88;100.00
40245;BME280;25963;42.694;23.600;2022-11-15T07:38:27;95700.28;;;6.11;100.00
40245;BME280;25963;42.694;23.600;2022-11-15T07:40:57;95703.34;;;6.15;100.00
40245;BME280;25963;42.694;23.600;2022-11-15T07:43:23;95699.03;;;6.22;100.00
40245;BME280;25963;42.694;23.600;2022-11-15T07:45:48;95688.84;;;6.27;100.00
40245;BME280;25963;42.694;23.600;2022-11-15T07:48:13;95695.53;;;6.30;100.00
40245;BME280;25963;42.694;23.600;2022-11-15T07:50:42;95686.81;;;6.14;100.00
40245;BME280;25963;42.694;23.600;2022-11-15T07:53:08;95689.09;;;6.17;100.00
40245;BME280;25963;42.694;23.600;2022-11-15T07:55:34;95688.22;;;6.40;100.00
40245;BME280;25963;42.694;23.600;2022-11-15T07:58:04;95691.22;;;6.52;100.00
40245;BME280;25963;42.694;23.600;2022-11-15T08:00:30;95684.56;;;6.49;100.00
40245;BME280;25963;42.694;23.600;2022-11-15T08:03:13;95691.59;;;6.49;100.00
40245;BME280;25963;42.694;23.600;2022-11-15T08:05:40;95691.34;;;6.58;100.00
40245;BME280;25963;42.694;23.600;2022-11-15T08:08:07;95687.81;;;6.66;100.00
40245;BME280;25963;42.694;23.600;2022-11-15T08:10:33;95691.34;;;7.03;100.00
40245;BME280;25963;42.694;23.600;2022-11-15T08:13:07;95687.34;;;7.22;100.00
40245;BME280;25963;42.694;23.600;2022-11-15T08:15:34;95687.69;;;7.34;100.00
40245;BME280;25963;42.694;23.600;2022-11-15T08:18:02;95682.19;;;7.28;100.00
40245;BME280;25963;42.694;23.600;2022-11-15T08:20:29;95674.31;;;7.28;100.00
40245;BME280;25963;42.694;23.600;2022-11-15T08:22:56;95679.41;;;7.51;100.00
40245;BME280;25963;42.694;23.600;2022-11-15T08:25:22;95667.84;;;7.46;100.00
40245;BME280;25963;42.694;23.600;2022-11-15T08:27:52;95677.28;;;7.25;100.00
40245;BME280;25963;42.694;23.600;2022-11-15T08:30:17;95679.59;;;7.50;100.00
40245;BME280;25963;42.694;23.600;2022-11-15T08:32:43;95677.53;;;7.45;100.00
40245;BME280;25963;42.694;23.600;2022-11-15T08:35:09;95682.53;;;7.40;100.00
40245;BME280;25963;42.694;23.600;2022-11-15T08:37:34;95685.91;;;7.55;100.00
40245;BME280;25963;42.694;23.600;2022-11-15T08:40:00;95679.84;;;7.55;100.00
40245;BME280;25963;42.694;23.600;2022-11-15T08:42:25;95676.78;;;7.51;100.00
40245;BME280;25963;42.694;23.600;2022-11-15T08:44:51;95674.56;;;7.70;100.00
40245;BME280;25963;42.694;23.600;2022-11-15T08:47:16;95678.88;;;7.77;100.00
40245;BME280;25963;42.694;23.600;2022-11-15T08:49:42;95672.25;;;7.82;100.00
40245;BME280;25963;42.694;23.600;2022-11-15T08:52:07;95671.56;;;7.94;100.00
40245;BME280;25963;42.694;23.600;2022-11-15T08:54:32;95681.25;;;7.72;100.00
40245;BME280;25963;42.694;23.600;2022-11-15T08:56:58;95667.97;;;7.81;100.00
40245;BME280;25963;42.694;23.600;2022-11-15T08:59:23;95667.06;;;7.88;100.00
40245;BME280;25963;42.694;23.600;2022-11-15T09:01:49;95658.88;;;7.04;100.00
40245;BME280;25963;42.694;23.600;2022-11-15T09:04:14;95654.81;;;7.38;100.00
40245;BME280;25963;42.694;23.600;2022-11-15T09:06:40;95656.59;;;7.52;100.00
40245;BME280;25963;42.694;23.600;2022-11-15T09:09:05;95652.84;;;7.61;100.00
40245;BME280;25963;42.694;23.600;2022-11-15T09:11:31;95652.84;;;7.61;100.00
40245;BME280;25963;42.694;23.600;2022-11-15T09:13:56;95636.78;;;7.49;100.00
40245;BME280;25963;42.694;23.600;2022-11-15T09:16:22;95638.97;;;7.67;100.00
40245;BME280;25963;42.694;23.600;2022-11-15T09:18:47;95631.53;;;7.71;100.00
40245;BME280;25963;42.694;23.600;2022-11-15T09:21:13;95637.16;;;7.46;100.00
40245;BME280;25963;42.694;23.600;2022-11-15T09:23:39;95631.69;;;7.26;100.00
40245;BME280;25963;42.694;23.600;2022-11-15T09:26:05;95632.31;;;7.28;100.00
40245;BME280;25963;42.694;23.600;2022-11-15T09:28:32;95633.13;;;7.29;100.00
40245;BME280;25963;42.694;23.600;2022-11-15T09:30:59;95631.13;;;7.31;100.00
40245;BME280;25963;42.694;23.600;2022-11-15T09:33:25;95625.09;;;7.52;100.00
40245;BME280;25963;42.694;23.600;2022-11-15T09:35:51;95614.03;;;7.78;100.00
40245;BME280;25963;42.694;23.600;2022-11-15T09:38:17;95615.03;;;7.77;100.00
40245;BME280;25963;42.694;23.600;2022-11-15T09:40:42;95610.47;;;7.86;100.00
40245;BME280;25963;42.694;23.600;2022-11-15T09:51:28;95596.38;;;7.93;100.00
40245;BME280;25963;42.694;23.600;2022-11-15T09:54:05;95591.50;;;7.90;100.00
40245;BME280;25963;42.694;23.600;2022-11-15T09:56:37;95592.72;;;7.88;100.00
40245;BME280;25963;42.694;23.600;2022-11-15T10:02:00;95583.84;;;8.17;100.00
40245;BME280;25963;42.694;23.600;2022-11-15T10:04:36;95571.78;;;8.29;100.00
40245;BME280;25963;42.694;23.600;2022-11-15T10:07:25;95566.75;;;8.62;100.00
40245;BME280;25963;42.694;23.600;2022-11-15T10:12:57;95561.91;;;8.73;100.00
40245;BME280;25963;42.694;23.600;2022-11-15T10:15:23;95566.84;;;8.41;100.00
40245;BME280;25963;42.694;23.600;2022-11-15T10:18:13;95559.44;;;8.30;100.00
40245;BME280;25963;42.694;23.600;2022-11-15T10:23:13;95545.94;;;8.67;100.00
40245;BME280;25963;42.694;23.600;2022-11-15T10:25:39;95535.94;;;9.04;100.00
40245;BME280;25963;42.694;23.600;2022-11-15T10:28:31;95538.25;;;8.73;100.00
40245;BME280;25963;42.694;23.600;2022-11-15T10:30:59;95531.38;;;8.72;100.00
40245;BME280;25963;42.694;23.600;2022-11-15T10:33:36;95533.84;;;8.80;100.00
40245;BME280;25963;42.694;23.600;2022-11-15T10:41:20;95525.16;;;8.86;100.00
40245;BME280;25963;42.694;23.600;2022-11-15T10:49:29;95513.69;;;9.27;100.00
40245;BME280;25963;42.694;23.600;2022-11-15T10:54:39;95499.56;;;9.28;100.00
40245;BME280;25963;42.694;23.600;2022-11-15T10:57:17;95494.50;;;9.46;100.00
40245;BME280;25963;42.694;23.600;2022-11-15T10:59:48;95495.09;;;9.28;100.00
40245;BME280;25963;42.694;23.600;2022-11-15T11:04:59;95484.75;;;9.27;100.00
40245;BME280;25963;42.694;23.600;2022-11-15T11:07:30;95482.09;;;9.13;100.00
40245;BME280;25963;42.694;23.600;2022-11-15T11:10:20;95476.88;;;9.40;100.00
40245;BME280;25963;42.694;23.600;2022-11-15T11:12:43;95474.03;;;9.62;100.00
40245;BME280;25963;42.694;23.600;2022-11-15T11:15:14;95467.69;;;9.96;100.00
40245;BME280;25963;42.694;23.600;2022-11-15T11:20:30;95455.88;;;10.25;100.00
40245;BME280;25963;42.694;23.600;2022-11-15T11:23:31;95445.53;;;10.37;100.00
40245;BME280;25963;42.694;23.600;2022-11-15T11:28:46;95425.53;;;11.24;100.00
40245;BME280;25963;42.694;23.600;2022-11-15T11:37:01;95418.69;;;12.10;98.70
40245;BME280;25963;42.694;23.600;2022-11-15T11:42:35;95405.19;;;12.18;97.27
40245;BME280;25963;42.694;23.600;2022-11-15T11:45:27;95406.34;;;11.85;94.64
40245;BME280;25963;42.694;23.600;2022-11-15T11:48:12;95399.03;;;12.24;97.46
40245;BME280;25963;42.694;23.600;2022-11-15T11:50:41;95398.31;;;12.47;98.20
40245;BME280;25963;42.694;23.600;2022-11-15T11:53:27;95394.97;;;12.70;93.63
40245;BME280;25963;42.694;23.600;2022-11-15T11:55:58;95380.22;;;12.63;92.15
40245;BME280;25963;42.694;23.600;2022-11-15T11:58:40;95383.63;;;12.82;93.72
40245;BME280;25963;42.694;23.600;2022-11-15T12:01:27;95374.09;;;13.04;94.95
40245;BME280;25963;42.694;23.600;2022-11-15T12:04:03;95373.09;;;13.05;90.70
40245;BME280;25963;42.694;23.600;2022-11-15T12:06:38;95361.34;;;13.13;93.42
40245;BME280;25963;42.694;23.600;2022-11-15T12:09:30;95367.88;;;13.29;93.56
40245;BME280;25963;42.694;23.600;2022-11-15T12:12:30;95364.06;;;13.36;91.23
40245;BME280;25963;42.694;23.600;2022-11-15T12:15:02;95350.13;;;13.41;89.87
40245;BME280;25963;42.694;23.600;2022-11-15T12:17:29;95351.16;;;13.52;89.43
40245;BME280;25963;42.694;23.600;2022-11-15T12:19:59;95344.94;;;13.46;89.52
40245;BME280;25963;42.694;23.600;2022-11-15T12:22:57;95347.47;;;13.29;90.15
40245;BME280;25963;42.694;23.600;2022-11-15T12:25:48;95341.59;;;13.39;90.51
40245;BME280;25963;42.694;23.600;2022-11-15T12:28:33;95343.44;;;13.50;88.28
40245;BME280;25963;42.694;23.600;2022-11-15T12:31:09;95331.13;;;13.67;89.37
40245;BME280;25963;42.694;23.600;2022-11-15T12:33:41;95330.31;;;13.55;87.42
40245;BME280;25963;42.694;23.600;2022-11-15T12:36:35;95326.03;;;13.31;89.53
40245;BME280;25963;42.694;23.600;2022-11-15T12:39:08;95325.56;;;13.45;88.93
40245;BME280;25963;42.694;23.600;2022-11-15T12:41:38;95317.88;;;13.44;89.33
40245;BME280;25963;42.694;23.600;2022-11-15T12:44:05;95311.31;;;13.35;89.80
40245;BME280;25963;42.694;23.600;2022-11-15T12:49:42;95318.28;;;13.17;90.63
40245;BME280;25963;42.694;23.600;2022-11-15T13:04:55;95300.72;;;13.35;88.51
40245;BME280;25963;42.694;23.600;2022-11-15T13:17:51;95278.13;;;13.32;86.92
40245;BME280;25963;42.694;23.600;2022-11-15T13:20:26;95287.56;;;13.16;89.10
40245;BME280;25963;42.694;23.600;2022-11-15T13:28:35;95270.75;;;13.22;88.12
40245;BME280;25963;42.694;23.600;2022-11-15T13:31:21;95265.09;;;13.31;88.04
40245;BME280;25963;42.694;23.600;2022-11-15T13:33:47;95251.19;;;13.35;86.43
40245;BME280;25963;42.694;23.600;2022-11-15T13:36:20;95258.06;;;13.36;87.03
40245;BME280;25963;42.694;23.600;2022-11-15T13:39:12;95254.75;;;13.41;87.00
40245;BME280;25963;42.694;23.600;2022-11-15T13:41:48;95260.59;;;13.43;86.27
40245;BME280;25963;42.694;23.600;2022-11-15T13:44:32;95259.25;;;13.29;86.81
40245;BME280;25963;42.694;23.600;2022-11-15T13:47:06;95257.28;;;13.36;86.72
40245;BME280;25963;42.694;23.600;2022-11-15T13:49:37;95260.63;;;13.31;87.10
40245;BME280;25963;42.694;23.600;2022-11-15T13:52:09;95257.50;;;13.22;87.45
40245;BME280;25963;42.694;23.600;2022-11-15T13:57:14;95254.38;;;13.02;88.35
40245;BME280;25963;42.694;23.600;2022-11-15T14:02:13;95253.78;;;12.76;89.33
40245;BME280;25963;42.694;23.600;2022-11-15T14:04:47;95254.69;;;12.70;89.71
40245;BME280;25963;42.694;23.600;2022-11-15T14:07:25;95252.47;;;12.55;90.04
40245;BME280;25963;42.694;23.600;2022-11-15T14:09:51;95255.03;;;12.50;90.63
40245;BME280;25963;42.694;23.600;2022-11-15T14:12:34;95250.06;;;12.54;90.88
40245;BME280;25963;42.694;23.600;2022-11-15T14:15:18;95253.16;;;12.39;91.44
40245;BME280;25963;42.694;23.600;2022-11-15T14:17:43;95242.75;;;12.26;91.92
40245;BME280;25963;42.694;23.600;2022-11-15T14:22:56;95255.50;;;11.99;93.73
40245;BME280;25963;42.694;23.600;2022-11-15T14:25:23;95242.47;;;11.85;94.33
40245;BME280;25963;42.694;23.600;2022-11-15T14:30:45;95236.97;;;11.87;94.26
40245;BME280;25963;42.694;23.600;2022-11-15T14:33:34;95234.63;;;11.79;94.57
40245;BME280;25963;42.694;23.600;2022-11-15T14:36:11;95235.88;;;11.58;95.19
40245;BME280;25963;42.694;23.600;2022-11-15T14:38:37;95232.72;;;11.31;96.22
40245;BME280;25963;42.694;23.600;2022-11-15T14:41:02;95235.06;;;11.20;96.78
40245;BME280;25963;42.694;23.600;2022-11-15T14:43:28;95233.91;;;11.16;97.00
40245;BME280;25963;42.694;23.600;2022-11-15T14:45:53;95229.84;;;11.14;96.97
40245;BME280;25963;42.694;23.600;2022-11-15T14:48:19;95231.72;;;11.07;96.97
40245;BME280;25963;42.694;23.600;2022-11-15T14:50:47;95224.63;;;10.89;97.17
40245;BME280;25963;42.694;23.600;2022-11-15T14:53:17;95231.59;;;10.77;97.55
40245;BME280;25963;42.694;23.600;2022-11-15T14:55:43;95237.63;;;10.59;98.27
40245;BME280;25963;42.694;23.600;2022-11-15T14:58:09;95237.94;;;10.50;98.79
40245;BME280;25963;42.694;23.600;2022-11-15T15:00:40;95244.31;;;10.36;99.14
40245;BME280;25963;42.694;23.600;2022-11-15T15:03:06;95240.72;;;10.24;99.47
40245;BME280;25963;42.694;23.600;2022-11-15T15:05:43;95242.25;;;10.06;100.00
40245;BME280;25963;42.694;23.600;2022-11-15T15:08:09;95246.38;;;9.89;100.00